Time;durP1;ratioP1;P1;durP2;ratioP2;P2;SDS_P1;SDS_P2;PMS_P1;PMS_P2;Temp;Humidity;BMP_temperature;BMP_pressure;BME280_temperature;BME280_humidity;BME280_pressure;Samples;Min_cycle;Max_cycle;Signal;HPM_P1;HPM_P2
2023/03/05 00:01:40;;;;;;;3.90;0.40;;;2.30;99.90;;;;;;4980843;28;20396;-70
2023/03/05 00:04:11;;;;;;;2.90;0.20;;;2.30;99.90;;;;;;4968587;28;20038;-70
2023/03/05 00:06:38;;;;;;;3.03;0.57;;;2.30;99.90;;;;;;4982096;28;20080;-70
2023/03/05 00:09:05;;;;;;;4.63;0.50;;;2.30;99.90;;;;;;4981504;28;20054;-70
2023/03/05 00:11:32;;;;;;;4.00;0.40;;;2.20;99.90;;;;;;4998319;28;20049;-70
2023/03/05 00:13:59;;;;;;;4.18;0.40;;;2.20;99.90;;;;;;4970250;28;20042;-70
2023/03/05 00:16:26;;;;;;;1.05;0.13;;;2.20;99.90;;;;;;4968438;28;20049;-70
2023/03/05 00:18:57;;;;;;;2.80;0.32;;;2.20;99.90;;;;;;4973589;28;20145;-70
2023/03/05 00:21:28;;;;;;;5.63;0.60;;;2.10;99.90;;;;;;4979767;28;20049;-71
2023/03/05 00:23:55;;;;;;;3.22;0.40;;;2.10;99.90;;;;;;4975979;28;20039;-71
2023/03/05 00:26:24;;;;;;;3.63;0.30;;;2.00;99.90;;;;;;4962427;28;20494;-71
2023/03/05 00:28:51;;;;;;;4.32;0.47;;;2.00;99.90;;;;;;4965233;28;20056;-71
2023/03/05 00:31:22;;;;;;;4.18;0.30;;;2.00;99.90;;;;;;4980635;28;20037;-71
2023/03/05 00:33:52;;;;;;;3.17;0.20;;;2.00;99.90;;;;;;4997439;28;20041;-71
2023/03/05 00:36:18;;;;;;;5.00;0.30;;;2.00;99.90;;;;;;4964853;28;20038;-71
2023/03/05 00:38:44;;;;;;;3.47;0.50;;;2.00;99.90;;;;;;4998379;28;20049;-71
2023/03/05 00:41:10;;;;;;;4.73;0.50;;;1.90;99.90;;;;;;4992535;28;20287;-71
2023/03/05 00:43:35;;;;;;;3.27;0.40;;;1.90;99.90;;;;;;4965596;28;20052;-71
2023/03/05 00:46:02;;;;;;;4.13;0.50;;;1.90;99.90;;;;;;4965047;28;20049;-71
2023/03/05 00:48:27;;;;;;;4.63;0.43;;;1.90;99.90;;;;;;4978124;28;20065;-70
2023/03/05 00:50:53;;;;;;;4.23;0.90;;;1.80;99.90;;;;;;4969591;28;20506;-70
2023/03/05 00:53:21;;;;;;;2.53;0.40;;;1.70;99.90;;;;;;4988913;28;20041;-70
2023/03/05 00:55:47;;;;;;;3.20;0.47;;;1.70;99.90;;;;;;4991126;28;20042;-70
2023/03/05 00:58:12;;;;;;;4.70;0.40;;;1.60;99.90;;;;;;4977532;28;20042;-70
2023/03/05 01:00:38;;;;;;;4.73;0.60;;;1.60;99.90;;;;;;4984975;28;20057;-70
2023/03/05 01:03:04;;;;;;;5.33;0.60;;;1.50;99.90;;;;;;4990791;28;20041;-70
2023/03/05 01:05:30;;;;;;;4.37;0.77;;;1.50;99.90;;;;;;4968720;28;20062;-70
2023/03/05 01:07:56;;;;;;;6.40;0.57;;;1.40;99.90;;;;;;4987671;28;20512;-70
2023/03/05 01:10:25;;;;;;;6.37;0.50;;;1.40;99.90;;;;;;5004160;28;20040;-70
2023/03/05 01:12:52;;;;;;;5.95;0.57;;;1.40;99.90;;;;;;5000187;28;20046;-70
2023/03/05 01:15:18;;;;;;;4.55;0.60;;;1.30;99.90;;;;;;4980178;28;20046;-70
2023/03/05 01:17:43;;;;;;;6.20;0.70;;;1.30;99.90;;;;;;4980203;28;20050;-70
2023/03/05 01:20:12;;;;;;;5.00;0.73;;;1.30;99.90;;;;;;4932427;28;20038;-70
2023/03/05 01:22:38;;;;;;;6.90;0.63;;;1.30;99.90;;;;;;4965181;28;20567;-70
2023/03/05 01:25:04;;;;;;;6.05;0.70;;;1.30;99.90;;;;;;5007749;28;20041;-70
2023/03/05 01:27:30;;;;;;;5.77;0.40;;;1.20;99.90;;;;;;4985122;28;20045;-70
2023/03/05 01:29:56;;;;;;;4.50;0.40;;;1.20;99.90;;;;;;4951546;28;20049;-70
2023/03/05 01:32:21;;;;;;;6.30;0.90;;;1.20;99.90;;;;;;4987180;28;20038;-70
2023/03/05 01:34:47;;;;;;;5.37;0.63;;;1.10;99.90;;;;;;4961168;28;20042;-70
2023/03/05 01:37:13;;;;;;;4.77;0.70;;;1.10;99.90;;;;;;4978405;28;20081;-70
2023/03/05 01:39:38;;;;;;;4.77;0.60;;;1.10;99.90;;;;;;5008260;28;20061;-70
2023/03/05 01:42:04;;;;;;;5.60;0.40;;;1.10;99.90;;;;;;4978863;28;20042;-70
2023/03/05 01:44:31;;;;;;;5.20;0.77;;;1.10;99.90;;;;;;5000381;28;20131;-71
2023/03/05 01:46:57;;;;;;;3.92;0.50;;;1.20;99.90;;;;;;4987207;28;20049;-71
2023/03/05 01:49:32;;;;;;;6.43;0.50;;;1.20;99.90;;;;;;4982886;28;20039;-71
2023/03/05 01:52:20;;;;;;;5.13;0.50;;;1.30;99.90;;;;;;4973346;28;20038;-69
2023/03/05 01:54:52;;;;;;;10.95;0.90;;;1.40;99.90;;;;;;4986775;28;20294;-69
2023/03/05 01:57:30;;;;;;;4.25;0.50;;;1.50;99.90;;;;;;4971589;28;20128;-69
2023/03/05 02:00:01;;;;;;;1.15;0.30;;;1.70;99.90;;;;;;4992819;28;20039;-69
2023/03/05 02:02:26;;;;;;;3.50;0.55;;;1.80;99.90;;;;;;5007268;28;20030;-69
2023/03/05 02:05:01;;;;;;;3.60;0.50;;;1.70;99.90;;;;;;4970558;28;20038;-69
2023/03/05 02:07:28;;;;;;;6.20;0.40;;;1.70;99.90;;;;;;4990795;28;20057;-69
2023/03/05 02:09:54;;;;;;;3.70;0.52;;;1.60;99.90;;;;;;4973123;28;20145;-71
2023/03/05 02:12:20;;;;;;;2.80;0.40;;;1.60;99.90;;;;;;4974784;28;20073;-71
2023/03/05 02:14:49;;;;;;;4.20;0.40;;;1.60;99.90;;;;;;4973685;28;20588;-71
2023/03/05 02:17:15;;;;;;;4.63;0.30;;;1.60;99.90;;;;;;4966431;28;20315;-72
2023/03/05 02:19:53;;;;;;;5.35;0.30;;;1.50;99.90;;;;;;4987586;28;20144;-72
2023/03/05 02:22:21;;;;;;;2.25;0.35;;;1.50;99.90;;;;;;4973395;28;20110;-72
2023/03/05 02:24:48;;;;;;;4.80;0.50;;;1.50;99.90;;;;;;4995989;28;20103;-72
2023/03/05 02:27:14;;;;;;;3.03;0.30;;;1.40;99.90;;;;;;4966526;28;20077;-72
2023/03/05 02:29:43;;;;;;;5.32;0.47;;;1.40;99.90;;;;;;4990978;28;20038;-72
2023/03/05 02:32:10;;;;;;;7.35;0.45;;;1.30;99.90;;;;;;4970310;28;20518;-72
2023/03/05 02:34:36;;;;;;;4.53;0.32;;;1.30;99.90;;;;;;4965238;28;20034;-72
2023/03/05 02:37:03;;;;;;;2.47;0.30;;;1.20;99.90;;;;;;4979665;28;20038;-72
2023/03/05 02:39:32;;;;;;;4.72;0.50;;;1.10;99.90;;;;;;4967153;28;20105;-72
2023/03/05 02:41:58;;;;;;;3.17;0.25;;;1.00;99.90;;;;;;4971233;28;20113;-72
2023/03/05 02:44:23;;;;;;;3.23;0.50;;;0.90;99.90;;;;;;4973802;28;20121;-72
2023/03/05 02:46:49;;;;;;;4.63;0.23;;;0.80;99.90;;;;;;4978095;28;20041;-72
2023/03/05 02:49:15;;;;;;;2.33;0.20;;;0.80;99.90;;;;;;4978512;28;20521;-72
2023/03/05 02:51:41;;;;;;;7.07;1.27;;;0.70;99.90;;;;;;4978747;28;20586;-72
2023/03/05 02:54:06;;;;;;;3.80;0.20;;;0.70;99.90;;;;;;4955690;28;20112;-72
2023/03/05 02:56:32;;;;;;;4.00;0.30;;;0.70;99.90;;;;;;4969194;28;20042;-72
2023/03/05 02:58:58;;;;;;;9.40;0.50;;;0.70;99.90;;;;;;4994394;28;20077;-72
2023/03/05 03:01:27;;;;;;;2.73;0.20;;;0.70;99.90;;;;;;4973722;28;20061;-72
2023/03/05 03:03:53;;;;;;;3.53;0.40;;;0.70;99.90;;;;;;4968023;28;20104;-72
2023/03/05 03:06:19;;;;;;;2.38;0.50;;;0.80;99.90;;;;;;4943633;28;20062;-72
2023/03/05 03:08:45;;;;;;;3.70;0.50;;;0.90;99.90;;;;;;4948661;28;20046;-72
2023/03/05 03:11:12;;;;;;;3.40;0.40;;;1.00;99.90;;;;;;4941294;28;20137;-72
2023/03/05 03:13:38;;;;;;;2.72;0.30;;;1.10;99.90;;;;;;4993717;28;20414;-72
2023/03/05 03:16:07;;;;;;;6.03;0.30;;;1.20;99.90;;;;;;4977895;28;20061;-72
2023/03/05 03:18:32;;;;;;;3.03;0.38;;;1.40;99.90;;;;;;4973701;28;20046;-72
2023/03/05 03:20:58;;;;;;;5.13;0.40;;;1.40;99.90;;;;;;4972898;28;20046;-72
2023/03/05 03:23:25;;;;;;;6.73;1.40;;;1.40;99.90;;;;;;4970971;28;20053;-72
2023/03/05 03:25:50;;;;;;;4.70;0.32;;;1.40;99.90;;;;;;4990393;28;20039;-72
2023/03/05 03:28:16;;;;;;;2.20;0.30;;;1.30;99.90;;;;;;4970906;28;20042;-72
2023/03/05 03:30:42;;;;;;;3.63;0.30;;;1.30;99.90;;;;;;4985382;28;20048;-72
2023/03/05 03:33:07;;;;;;;2.57;0.50;;;1.20;99.90;;;;;;4986702;28;20054;-72
2023/03/05 03:35:33;;;;;;;4.63;0.40;;;1.20;99.90;;;;;;4958545;28;20134;-72
2023/03/05 03:37:59;;;;;;;3.80;0.30;;;1.10;99.90;;;;;;4986735;28;20042;-72
2023/03/05 03:40:25;;;;;;;3.87;0.40;;;1.00;99.90;;;;;;4968387;28;20437;-72
2023/03/05 03:42:51;;;;;;;3.83;0.40;;;0.90;99.90;;;;;;4987640;28;20050;-72
2023/03/05 03:45:17;;;;;;;3.40;0.40;;;0.80;99.90;;;;;;4991296;28;20127;-72
2023/03/05 03:47:43;;;;;;;5.53;0.40;;;0.70;99.90;;;;;;4972620;28;20050;-72
2023/03/05 03:50:09;;;;;;;2.33;0.50;;;0.60;99.90;;;;;;5009896;28;20113;-72
2023/03/05 03:52:35;;;;;;;3.60;0.65;;;0.60;99.90;;;;;;4993084;28;20057;-71
2023/03/05 03:55:01;;;;;;;7.00;0.40;;;0.50;99.90;;;;;;4961672;28;20049;-71
2023/03/05 03:57:28;;;;;;;2.80;0.40;;;0.40;99.90;;;;;;4968839;28;20126;-71
2023/03/05 03:59:54;;;;;;;1.92;0.35;;;0.40;99.90;;;;;;4958934;28;20050;-71
2023/03/05 04:02:20;;;;;;;4.55;0.52;;;0.40;99.90;;;;;;5002553;28;20042;-71
2023/03/05 04:04:45;;;;;;;3.17;0.40;;;0.30;99.90;;;;;;4987502;28;20084;-71
2023/03/05 04:07:11;;;;;;;3.00;0.47;;;0.30;99.90;;;;;;4973094;28;20179;-71
2023/03/05 04:09:37;;;;;;;3.37;0.57;;;0.30;99.90;;;;;;4980728;28;20042;-71
2023/03/05 04:12:03;;;;;;;5.83;0.70;;;0.40;99.90;;;;;;4976649;28;20074;-69
2023/03/05 04:14:29;;;;;;;8.20;0.67;;;0.40;99.90;;;;;;4977653;28;20037;-69
2023/03/05 04:16:54;;;;;;;7.43;0.53;;;0.50;99.90;;;;;;4975148;28;20038;-69
2023/03/05 04:19:20;;;;;;;4.37;0.70;;;0.60;99.90;;;;;;4982732;28;20046;-69
2023/03/05 04:21:46;;;;;;;3.05;0.57;;;0.70;99.90;;;;;;4976289;28;20046;-69
2023/03/05 04:24:12;;;;;;;6.85;0.70;;;0.70;99.90;;;;;;4977482;28;20500;-69
2023/03/05 04:26:38;;;;;;;6.53;0.87;;;0.80;99.90;;;;;;4979417;28;20034;-69
2023/03/05 04:29:03;;;;;;;6.83;0.70;;;0.80;99.90;;;;;;4985413;28;20425;-69
2023/03/05 04:31:29;;;;;;;9.53;0.83;;;0.80;99.90;;;;;;4970737;28;20105;-69
2023/03/05 04:33:55;;;;;;;7.23;1.17;;;0.90;99.90;;;;;;4964053;28;20038;-69
2023/03/05 04:36:20;;;;;;;7.27;2.07;;;0.90;99.90;;;;;;4976641;28;20129;-69
2023/03/05 04:38:46;;;;;;;6.17;0.70;;;0.90;99.90;;;;;;4981658;28;20675;-69
2023/03/05 04:41:12;;;;;;;7.80;0.60;;;0.90;99.90;;;;;;4967876;28;20108;-69
2023/03/05 04:43:38;;;;;;;5.23;0.70;;;0.80;99.90;;;;;;4998643;28;20029;-69
2023/03/05 04:46:03;;;;;;;6.27;0.60;;;0.80;99.90;;;;;;4971121;28;20050;-69
2023/03/05 04:48:29;;;;;;;8.87;1.10;;;0.80;99.90;;;;;;4971272;28;20053;-69
2023/03/05 04:50:56;;;;;;;3.30;0.93;;;0.80;99.90;;;;;;4957115;28;20041;-69
2023/03/05 04:53:22;;;;;;;3.92;0.40;;;0.80;99.90;;;;;;4985594;28;20095;-69
2023/03/05 04:55:55;;;;;;;5.43;0.77;;;0.70;99.90;;;;;;4976622;28;20077;-69
2023/03/05 04:58:22;;;;;;;5.85;0.40;;;0.70;99.90;;;;;;4972003;28;20084;-69
2023/03/05 05:00:48;;;;;;;4.22;0.82;;;0.70;99.90;;;;;;4987894;28;20041;-69
2023/03/05 05:03:14;;;;;;;3.57;0.40;;;0.60;99.90;;;;;;4979629;28;20104;-69
2023/03/05 05:05:40;;;;;;;2.67;0.70;;;0.60;99.90;;;;;;5005723;28;20308;-69
2023/03/05 05:08:05;;;;;;;6.10;0.40;;;0.60;99.90;;;;;;4998688;28;20042;-69
2023/03/05 05:10:31;;;;;;;4.83;0.50;;;0.60;99.90;;;;;;4966839;28;20293;-69
2023/03/05 05:12:57;;;;;;;4.73;0.40;;;0.60;99.90;;;;;;4979845;28;20132;-69
2023/03/05 05:15:23;;;;;;;5.33;0.40;;;0.60;99.90;;;;;;4975663;28;20298;-69
2023/03/05 05:17:49;;;;;;;3.30;0.40;;;0.60;99.90;;;;;;4981957;28;20049;-69
2023/03/05 05:20:15;;;;;;;3.83;0.30;;;0.60;99.90;;;;;;4973851;28;20135;-69
2023/03/05 05:22:41;;;;;;;6.85;0.55;;;0.70;99.90;;;;;;4974407;28;20554;-69
2023/03/05 05:25:09;;;;;;;4.70;0.53;;;0.70;99.90;;;;;;4986418;28;20132;-69
2023/03/05 05:27:35;;;;;;;1.48;0.38;;;0.80;99.90;;;;;;4982627;28;20049;-69
2023/03/05 05:30:01;;;;;;;5.15;0.40;;;0.90;99.90;;;;;;4970531;28;20081;-69
2023/03/05 05:32:27;;;;;;;3.28;0.55;;;0.90;99.90;;;;;;4979464;28;20168;-69
2023/03/05 05:34:54;;;;;;;5.73;0.40;;;0.90;99.90;;;;;;4972617;28;20046;-69
2023/03/05 05:37:20;;;;;;;4.95;0.30;;;0.90;99.90;;;;;;4959163;28;20076;-69
2023/03/05 05:39:49;;;;;;;2.63;0.50;;;0.90;99.90;;;;;;4950948;28;20117;-69
2023/03/05 05:42:19;;;;;;;2.97;0.20;;;1.00;99.90;;;;;;4989078;28;20038;-69
2023/03/05 05:44:46;;;;;;;2.75;0.50;;;1.00;99.90;;;;;;4985408;28;20406;-69
2023/03/05 05:47:12;;;;;;;5.25;0.45;;;0.90;99.90;;;;;;4983755;28;20041;-69
2023/03/05 05:49:38;;;;;;;5.93;0.40;;;0.90;99.90;;;;;;4971040;28;20086;-69
2023/03/05 05:52:05;;;;;;;4.77;0.30;;;0.80;99.90;;;;;;4974899;28;20062;-69
2023/03/05 05:54:31;;;;;;;4.82;0.32;;;0.80;99.90;;;;;;4994051;28;20080;-69
2023/03/05 05:56:56;;;;;;;2.83;0.60;;;0.90;99.90;;;;;;4969816;28;20066;-69
2023/03/05 05:59:22;;;;;;;3.17;0.40;;;0.80;99.90;;;;;;4986213;28;20470;-69
2023/03/05 06:01:48;;;;;;;7.70;0.43;;;0.80;99.90;;;;;;4972568;28;20073;-69
2023/03/05 06:04:13;;;;;;;5.40;0.67;;;0.80;99.90;;;;;;4966494;28;20053;-69
2023/03/05 06:06:39;;;;;;;4.17;0.50;;;0.80;99.90;;;;;;4986622;28;20054;-69
2023/03/05 06:09:05;;;;;;;3.30;0.47;;;0.70;99.90;;;;;;4980060;28;20533;-69
2023/03/05 06:11:31;;;;;;;4.53;0.60;;;0.70;99.90;;;;;;4973477;28;20066;-69
2023/03/05 06:13:57;;;;;;;4.77;0.40;;;0.60;99.90;;;;;;4988896;28;20053;-69
2023/03/05 06:16:23;;;;;;;7.27;0.50;;;0.50;99.90;;;;;;4983569;28;20041;-69
2023/03/05 06:18:50;;;;;;;2.15;0.30;;;0.50;99.90;;;;;;5004304;28;20458;-69
2023/03/05 06:21:18;;;;;;;5.55;0.40;;;0.40;99.90;;;;;;4990869;28;20506;-71
2023/03/05 06:23:45;;;;;;;3.92;0.40;;;0.40;99.90;;;;;;4974519;28;20041;-69
2023/03/05 06:26:13;;;;;;;2.10;0.30;;;0.40;99.90;;;;;;4996726;28;20038;-69
2023/03/05 06:28:39;;;;;;;3.65;0.50;;;0.30;99.90;;;;;;4997875;28;20038;-69
2023/03/05 06:31:08;;;;;;;4.10;0.32;;;0.30;99.90;;;;;;4993288;28;20120;-69
2023/03/05 06:33:34;;;;;;;3.05;0.60;;;0.30;99.90;;;;;;4994308;28;20044;-69
2023/03/05 06:36:03;;;;;;;5.65;0.40;;;0.20;99.90;;;;;;4962754;28;20402;-69
2023/03/05 06:38:29;;;;;;;5.32;0.30;;;0.20;99.90;;;;;;4992086;28;20617;-69
2023/03/05 06:40:54;;;;;;;5.90;0.57;;;0.20;99.90;;;;;;4965575;28;20042;-69
2023/03/05 06:43:20;;;;;;;5.07;0.80;;;0.20;99.90;;;;;;4970835;28;20343;-69
2023/03/05 06:45:46;;;;;;;6.17;0.47;;;0.20;99.90;;;;;;4991085;28;20041;-69
2023/03/05 06:48:11;;;;;;;5.60;0.57;;;0.20;99.90;;;;;;4963578;28;20048;-69
2023/03/05 06:50:37;;;;;;;6.63;0.60;;;0.20;99.90;;;;;;4996303;28;20049;-69
2023/03/05 06:53:04;;;;;;;3.35;0.40;;;0.30;99.90;;;;;;4980612;28;20263;-69
2023/03/05 06:55:30;;;;;;;5.32;0.50;;;0.30;99.90;;;;;;4955924;28;20520;-69
2023/03/05 06:57:55;;;;;;;8.73;0.60;;;0.30;99.90;;;;;;4979944;28;20037;-69
2023/03/05 07:00:23;;;;;;;4.40;0.53;;;0.40;99.90;;;;;;4990470;28;20100;-69
2023/03/05 07:02:48;;;;;;;5.63;0.47;;;0.40;99.90;;;;;;4980398;28;20122;-69
2023/03/05 07:05:15;;;;;;;2.13;0.77;;;0.50;99.90;;;;;;4955838;28;20142;-69
2023/03/05 07:07:40;;;;;;;6.43;0.90;;;0.50;99.90;;;;;;4979493;28;20049;-69
2023/03/05 07:10:07;;;;;;;3.37;0.60;;;0.60;99.90;;;;;;4953102;28;20985;-69
2023/03/05 07:12:34;;;;;;;7.35;0.73;;;0.70;99.90;;;;;;4980225;28;20128;-69
2023/03/05 07:15:00;;;;;;;7.40;0.88;;;0.70;99.90;;;;;;4990643;28;20513;-69
2023/03/05 07:17:26;;;;;;;6.03;0.90;;;0.80;99.90;;;;;;4980443;28;20045;-69
2023/03/05 07:19:52;;;;;;;4.75;0.30;;;0.90;99.90;;;;;;4969952;28;20292;-69
2023/03/05 07:22:18;;;;;;;7.73;1.23;;;0.90;99.90;;;;;;4992743;28;20073;-69
2023/03/05 07:24:43;;;;;;;4.10;0.47;;;1.00;99.90;;;;;;4980732;28;20080;-69
2023/03/05 07:27:09;;;;;;;16.17;1.33;;;1.00;99.90;;;;;;4960976;28;20072;-69
2023/03/05 07:29:35;;;;;;;4.83;0.50;;;1.10;99.90;;;;;;4959574;28;20498;-69
2023/03/05 07:32:00;;;;;;;6.17;0.63;;;1.10;99.90;;;;;;4964062;28;20034;-69
2023/03/05 07:34:26;;;;;;;5.03;0.50;;;1.20;99.90;;;;;;4980316;28;20064;-69
2023/03/05 07:36:52;;;;;;;5.20;0.70;;;1.20;99.90;;;;;;4972967;28;20064;-69
2023/03/05 07:39:18;;;;;;;3.83;0.43;;;1.30;99.90;;;;;;4962809;28;20052;-69
2023/03/05 07:41:45;;;;;;;7.23;1.03;;;1.40;99.90;;;;;;4967240;28;20049;-69
2023/03/05 07:44:11;;;;;;;8.45;0.70;;;1.50;99.90;;;;;;4966264;28;20120;-69
2023/03/05 07:46:37;;;;;;;1.63;0.40;;;1.50;99.90;;;;;;4958842;28;20075;-69
2023/03/05 07:49:03;;;;;;;6.63;0.43;;;1.60;99.90;;;;;;4975636;28;20390;-69
2023/03/05 07:51:29;;;;;;;5.05;0.50;;;1.70;99.90;;;;;;4962156;28;20049;-71
2023/03/05 07:53:57;;;;;;;2.85;0.50;;;1.80;99.90;;;;;;5001517;28;20053;-72
2023/03/05 07:56:30;;;;;;;3.28;0.60;;;1.90;99.90;;;;;;4983858;28;20181;-72
2023/03/05 07:58:57;;;;;;;4.72;0.80;;;2.00;99.90;;;;;;4997754;28;20054;-71
2023/03/05 08:01:23;;;;;;;5.43;0.50;;;2.00;99.90;;;;;;4996084;28;20106;-71
2023/03/05 08:03:49;;;;;;;4.33;0.97;;;2.10;99.90;;;;;;4991852;28;20077;-71
2023/03/05 08:06:14;;;;;;;6.37;0.93;;;2.20;99.90;;;;;;4965188;28;20050;-71
2023/03/05 08:08:40;;;;;;;7.07;0.60;;;2.20;99.90;;;;;;4981724;28;20046;-71
2023/03/05 08:11:10;;;;;;;9.23;2.63;;;2.40;99.90;;;;;;4993262;28;20125;-72
2023/03/05 08:13:36;;;;;;;7.75;0.75;;;2.50;99.90;;;;;;4959506;28;20395;-72
2023/03/05 08:16:17;;;;;;;6.20;0.60;;;2.70;99.90;;;;;;4963705;28;20073;-71
2023/03/05 08:18:43;;;;;;;6.55;0.80;;;2.80;99.90;;;;;;4987854;28;20074;-71
2023/03/05 08:21:20;;;;;;;3.80;0.52;;;2.90;99.90;;;;;;4961979;28;20042;-71
2023/03/05 08:23:46;;;;;;;6.25;0.80;;;3.10;99.90;;;;;;4952064;28;20045;-71
2023/03/05 08:26:15;;;;;;;6.35;1.00;;;3.20;99.90;;;;;;4946949;28;20038;-71
2023/03/05 08:28:41;;;;;;;6.18;0.60;;;3.40;99.90;;;;;;4950500;28;20042;-71
2023/03/05 08:31:11;;;;;;;7.83;0.83;;;3.50;99.90;;;;;;4965259;28;20049;-71
2023/03/05 08:33:39;;;;;;;5.47;0.45;;;3.70;99.90;;;;;;4962789;28;20114;-71
2023/03/05 08:36:05;;;;;;;4.57;0.70;;;3.80;99.90;;;;;;4944409;28;20046;-71
2023/03/05 08:38:31;;;;;;;5.13;0.60;;;3.90;99.90;;;;;;4950384;28;20073;-71
2023/03/05 08:41:00;;;;;;;5.50;0.47;;;4.00;99.90;;;;;;4990109;28;20042;-71
2023/03/05 08:43:25;;;;;;;5.57;0.70;;;4.00;99.90;;;;;;4956617;28;20694;-71
2023/03/05 08:45:52;;;;;;;5.80;0.90;;;4.10;99.90;;;;;;4961602;28;20739;-71
2023/03/05 08:48:19;;;;;;;5.68;1.02;;;4.10;99.90;;;;;;4953344;28;20517;-71
2023/03/05 08:50:45;;;;;;;4.90;0.52;;;4.20;99.90;;;;;;4952608;28;20547;-71
2023/03/05 08:53:11;;;;;;;6.68;0.95;;;4.20;99.90;;;;;;4960486;28;20499;-70
2023/03/05 08:55:37;;;;;;;4.80;1.10;;;4.30;99.90;;;;;;4978482;28;20042;-71
2023/03/05 08:58:03;;;;;;;10.77;0.60;;;4.30;99.90;;;;;;4944272;28;20042;-70
2023/03/05 09:00:29;;;;;;;4.40;0.68;;;4.30;99.90;;;;;;4948775;28;20065;-71
2023/03/05 09:02:55;;;;;;;6.50;0.70;;;4.40;99.90;;;;;;4975344;28;20046;-71
2023/03/05 09:05:21;;;;;;;7.40;0.77;;;4.50;99.90;;;;;;4989127;28;20050;-70
2023/03/05 09:07:47;;;;;;;5.97;0.50;;;4.50;99.90;;;;;;4974857;28;20050;-71
2023/03/05 09:10:13;;;;;;;4.33;0.73;;;4.60;99.90;;;;;;4964722;28;20042;-71
2023/03/05 09:12:40;;;;;;;7.38;0.93;;;4.70;99.90;;;;;;5002162;28;20767;-71
2023/03/05 09:15:07;;;;;;;8.00;1.65;;;4.90;99.90;;;;;;4986373;28;20120;-71
2023/03/05 09:17:38;;;;;;;6.53;0.35;;;5.00;99.90;;;;;;4968686;28;20131;-71
2023/03/05 09:20:06;;;;;;;6.80;0.60;;;5.20;99.90;;;;;;5007681;28;20049;-71
2023/03/05 09:22:31;;;;;;;5.30;0.55;;;5.30;99.90;;;;;;4999227;28;20042;-71
2023/03/05 09:25:03;;;;;;;5.93;0.80;;;5.30;99.90;;;;;;4980644;28;20046;-71
2023/03/05 09:27:35;;;;;;;8.20;0.93;;;5.40;99.90;;;;;;4971136;28;20050;-71
2023/03/05 09:30:02;;;;;;;7.70;0.95;;;5.30;99.90;;;;;;4987123;28;20046;-72
2023/03/05 09:32:28;;;;;;;4.97;0.45;;;5.20;99.90;;;;;;4959289;28;20072;-71
2023/03/05 09:34:54;;;;;;;11.40;0.88;;;5.20;99.90;;;;;;4981390;28;20527;-71
2023/03/05 09:37:20;;;;;;;4.82;0.70;;;5.10;99.90;;;;;;4959488;28;20487;-71
2023/03/05 09:39:46;;;;;;;8.63;0.43;;;5.10;99.90;;;;;;4971306;28;20053;-71
2023/03/05 09:42:26;;;;;;;5.20;0.50;;;5.10;99.90;;;;;;4960432;28;20297;-71
2023/03/05 09:45:13;;;;;;;6.55;0.70;;;5.20;99.90;;;;;;4982297;28;20046;-71
2023/03/05 09:47:39;;;;;;;4.50;0.68;;;5.30;99.90;;;;;;4986058;28;20061;-71
2023/03/05 09:50:30;;;;;;;2.63;0.40;;;5.40;99.90;;;;;;4993240;28;20042;-71
2023/03/05 09:53:02;;;;;;;7.28;0.52;;;5.60;99.90;;;;;;4969827;28;20088;-71
2023/03/05 09:55:39;;;;;;;6.85;0.60;;;5.80;99.90;;;;;;4979771;28;20091;-71
2023/03/05 09:58:39;;;;;;;7.57;0.68;;;5.90;99.90;;;;;;4990859;28;20077;-71
2023/03/05 10:01:13;;;;;;;4.20;0.45;;;5.90;99.90;;;;;;4988366;28;20506;-71
2023/03/05 10:04:00;;;;;;;2.65;0.47;;;6.10;99.90;;;;;;4978375;28;20030;-71
2023/03/05 10:06:46;;;;;;;2.47;0.50;;;6.10;99.90;;;;;;4968916;28;20057;-71
2023/03/05 10:09:30;;;;;;;11.20;1.60;;;6.00;99.90;;;;;;5000438;28;20065;-71
2023/03/05 10:12:26;;;;;;;4.78;0.52;;;5.90;99.90;;;;;;4969965;28;20042;-71
2023/03/05 10:14:52;;;;;;;;;;;5.70;99.90;;;;;;4991208;28;20466;-71
2023/03/05 10:17:59;;;;;;;5.03;0.57;;;5.50;99.90;;;;;;4971265;28;19918;-71
2023/03/05 10:20:29;;;;;;;4.35;0.50;;;5.40;99.90;;;;;;4921503;29;20055;-71
2023/03/05 10:23:07;;;;;;;6.13;0.47;;;5.40;99.90;;;;;;4903835;29;20040;-71
2023/03/05 10:25:55;;;;;;;2.22;0.20;;;5.50;99.90;;;;;;4949849;28;20049;-71
2023/03/05 10:28:49;;;;;;;6.07;1.10;;;5.50;99.90;;;;;;4975079;28;20049;-71
2023/03/05 10:31:36;;;;;;;5.72;0.60;;;5.50;99.90;;;;;;4988778;28;20042;-71
2023/03/05 10:34:21;;;;;;;6.50;0.47;;;5.60;99.90;;;;;;4982993;28;20038;-71
2023/03/05 10:37:02;;;;;;;7.70;0.80;;;5.70;99.90;;;;;;4984366;28;20310;-71
2023/03/05 10:40:06;;;;;;;6.45;0.45;;;5.80;99.90;;;;;;4994203;28;20065;-71
2023/03/05 10:42:45;;;;;;;7.72;0.50;;;5.90;99.90;;;;;;4974873;28;20347;-71
2023/03/05 10:45:19;;;;;;;6.65;0.60;;;5.90;99.90;;;;;;4976855;28;20042;-71
2023/03/05 10:47:56;;;;;;;6.28;0.73;;;6.10;99.90;;;;;;4982200;28;20061;-71
2023/03/05 10:50:27;;;;;;;8.57;0.73;;;6.30;99.90;;;;;;4977925;28;20302;-71
2023/03/05 10:53:24;;;;;;;4.50;0.43;;;6.40;99.90;;;;;;4971675;28;20049;-71
2023/03/05 10:55:55;;;;;;;5.07;0.85;;;6.20;99.90;;;;;;4990416;28;20373;-71
2023/03/05 10:58:21;;;;;;;3.03;0.40;;;6.00;99.90;;;;;;4988801;28;20140;-71
2023/03/05 11:01:16;;;;;;;6.45;0.60;;;5.90;99.90;;;;;;4991510;28;20038;-71
2023/03/05 11:03:50;;;;;;;1.85;0.40;;;6.00;99.90;;;;;;4961689;28;20053;-71
2023/03/05 11:06:28;;;;;;;7.63;0.50;;;6.10;99.90;;;;;;4978870;28;20572;-71
2023/03/05 11:08:55;;;;;;;4.72;0.40;;;6.40;99.90;;;;;;4974616;28;20054;-71
2023/03/05 11:11:22;;;;;;;4.22;0.38;;;6.50;99.90;;;;;;4976539;28;20050;-71
2023/03/05 11:13:57;;;;;;;3.05;0.55;;;6.50;99.90;;;;;;4972359;28;20045;-71
2023/03/05 11:16:27;;;;;;;4.63;0.60;;;6.60;99.90;;;;;;4986078;28;20385;-71
2023/03/05 11:19:22;;;;;;;7.90;0.52;;;6.80;99.90;;;;;;4973300;28;20047;-71
2023/03/05 11:22:09;;;;;;;1.75;0.55;;;7.00;99.90;;;;;;4984566;28;20047;-71
2023/03/05 11:24:40;;;;;;;5.15;1.25;;;7.00;99.90;;;;;;4986054;28;20072;-72
2023/03/05 11:27:34;;;;;;;5.93;0.60;;;7.00;99.90;;;;;;4968930;28;20038;-71
2023/03/05 11:29:59;;;;;;;5.97;0.50;;;6.80;99.90;;;;;;4976895;28;20108;-72
2023/03/05 11:32:28;;;;;;;3.13;0.30;;;6.80;99.90;;;;;;4977195;28;20041;-72
2023/03/05 11:34:55;;;;;;;7.18;0.80;;;6.70;99.90;;;;;;5005696;28;20065;-71
2023/03/05 11:37:27;;;;;;;5.55;0.52;;;6.70;99.90;;;;;;4991646;28;20030;-72
2023/03/05 11:40:23;;;;;;;4.43;0.30;;;6.80;99.90;;;;;;4968567;28;20554;-72
2023/03/05 11:42:55;;;;;;;4.53;0.93;;;6.80;99.90;;;;;;4973495;28;20038;-72
2023/03/05 11:45:23;;;;;;;3.72;0.57;;;6.90;99.90;;;;;;4977230;28;20049;-72
2023/03/05 11:47:55;;;;;;;5.90;0.73;;;7.00;99.90;;;;;;4979359;28;20049;-71
2023/03/05 11:50:40;;;;;;;5.03;0.50;;;7.20;99.90;;;;;;4986223;28;20077;-73
2023/03/05 11:53:16;;;;;;;4.85;0.82;;;7.60;99.90;;;;;;4973971;28;20042;-72
2023/03/05 11:55:56;;;;;;;6.90;0.73;;;7.80;99.90;;;;;;4973954;28;20060;-72
2023/03/05 11:58:54;;;;;;;5.70;0.50;;;7.90;99.90;;;;;;4992184;28;20038;-72
2023/03/05 12:01:23;;;;;;;7.68;0.77;;;7.70;99.90;;;;;;5005252;28;20033;-71
2023/03/05 12:03:50;;;;;;;3.15;0.40;;;7.50;99.90;;;;;;4987538;28;20391;-71
2023/03/05 12:06:19;;;;;;;5.13;0.52;;;7.40;99.90;;;;;;4970681;28;20054;-72
2023/03/05 12:08:52;;;;;;;3.97;0.40;;;7.40;99.90;;;;;;4996138;28;20089;-71
2023/03/05 12:11:30;;;;;;;3.35;0.35;;;7.60;99.90;;;;;;4991007;28;20149;-71
2023/03/05 12:13:56;;;;;;;5.95;0.45;;;7.80;99.90;;;;;;4983182;28;20054;-72
2023/03/05 12:16:32;;;;;;;2.70;0.57;;;7.70;99.90;;;;;;4983565;28;20037;-71
2023/03/05 12:19:06;;;;;;;3.65;0.55;;;7.60;99.90;;;;;;4970495;28;20072;-73
2023/03/05 12:21:41;;;;;;;3.28;0.35;;;7.40;99.90;;;;;;4972110;28;20041;-72
2023/03/05 12:24:25;;;;;;;4.65;0.90;;;7.20;99.90;;;;;;4991370;28;20057;-72
2023/03/05 12:27:03;;;;;;;4.90;0.60;;;7.00;99.90;;;;;;4970240;28;20049;-72
2023/03/05 12:29:32;;;;;;;2.83;0.45;;;7.10;99.90;;;;;;4973081;28;20206;-72
2023/03/05 12:32:00;;;;;;;4.75;1.20;;;7.20;99.90;;;;;;4972996;28;20042;-72
2023/03/05 12:34:37;;;;;;;5.40;0.40;;;7.40;99.90;;;;;;4978680;28;20490;-72
2023/03/05 12:37:33;;;;;;;4.65;0.70;;;7.60;99.90;;;;;;4979851;28;20568;-71
2023/03/05 12:40:07;;;;;;;7.35;0.73;;;7.60;99.90;;;;;;4980858;28;20068;-72
2023/03/05 12:42:46;;;;;;;7.15;0.40;;;7.50;99.90;;;;;;5011787;28;20556;-73
2023/03/05 12:45:30;;;;;;;3.45;0.57;;;7.40;99.90;;;;;;4983625;28;20145;-72
2023/03/05 12:47:56;;;;;;;4.50;0.70;;;7.20;99.90;;;;;;4984933;28;20041;-72
2023/03/05 12:50:27;;;;;;;3.50;0.40;;;7.20;99.90;;;;;;5000213;28;20054;-71
2023/03/05 12:53:05;;;;;;;4.15;0.60;;;7.10;99.90;;;;;;4996819;28;20127;-71
2023/03/05 12:55:34;;;;;;;5.13;0.50;;;6.90;99.90;;;;;;4988393;28;20487;-71
2023/03/05 12:58:26;;;;;;;3.53;0.32;;;6.70;99.90;;;;;;4978244;28;20080;-72
2023/03/05 13:01:02;;;;;;;6.28;0.93;;;6.50;99.90;;;;;;4961372;28;20519;-72
2023/03/05 13:03:42;;;;;;;3.80;0.40;;;6.40;99.90;;;;;;4991719;28;20288;-71
2023/03/05 13:06:24;;;;;;;6.13;0.63;;;6.30;99.90;;;;;;4969256;28;20054;-72
2023/03/05 13:09:16;;;;;;;5.10;0.50;;;6.30;99.90;;;;;;4989855;28;20062;-72
2023/03/05 13:11:46;;;;;;;4.85;0.40;;;6.30;99.90;;;;;;5000100;28;20072;-72